Lewisdale, Maryland
Current Conditions -  °F | °C
As of 2:45 AM on Wednesday 26 Nov 2014 (Local Time) from KCGS Reporting Station
Overcast Overcast  
Wind Chill: 44°   Ceiling: 8500
Heat Index: 46°   Visibility: 10mi
Dew Point: 36°   Wind: 6mph
Humidity: 66%   Direction: 350°N
Pressure: 30.11"   Gusts: NA
Location:  38.9677°N, 76.9584°W
Report Text: KCGS 260745Z AUTO 35005KT 10SM BKN085 OVC110 08/02 A3011 RMK AO1
Loading
Personal Weather Stations






























Interactive Weather Map New forecast layout! Learn more

10-Day Weather Forecast

Advertisements
Track Severe Weather on mobile